Time;durP1;ratioP1;P1;durP2;ratioP2;P2;SDS_P1;SDS_P2;PMS_P1;PMS_P2;Temp;Humidity;BMP_temperature;BMP_pressure;BME280_temperature;BME280_humidity;BME280_pressure;Samples;Min_cycle;Max_cycle;Signal;HPM_P1;HPM_P2
2022/11/08 00:03:41;;;;;;;5.93;2.95;;;;;;;10.15;85.27;98586.75;5016896;28;20048;-83
2022/11/08 00:14:19;;;;;;;5.03;2.63;;;;;;;10.19;84.80;98576.38;4986426;28;20075;-83
2022/11/08 00:16:44;;;;;;;7.53;2.42;;;;;;;10.08;84.90;98567.44;5000642;28;20037;-83
2022/11/08 00:19:09;;;;;;;3.40;2.20;;;;;;;9.85;85.91;98549.06;4999378;28;20041;-83
2022/11/08 00:21:35;;;;;;;8.32;2.97;;;;;;;9.98;85.88;98571.88;4998712;28;20034;-81
2022/11/08 00:24:00;;;;;;;14.45;3.70;;;;;;;10.03;85.68;98574.56;5015863;28;20559;-83
2022/11/08 00:26:26;;;;;;;7.80;2.97;;;;;;;10.12;85.21;98573.91;4982141;28;20063;-83
2022/11/08 00:28:51;;;;;;;8.57;3.35;;;;;;;9.93;85.65;98561.94;5014746;28;21923;-83
2022/11/08 00:31:17;;;;;;;6.15;2.75;;;;;;;10.12;85.27;98573.09;4979369;28;20518;-81
2022/11/08 00:33:42;;;;;;;6.93;2.75;;;;;;;10.00;85.43;98570.56;5008592;28;20041;-83
2022/11/08 00:36:08;;;;;;;5.15;2.75;;;;;;;10.13;84.92;98583.53;5001253;28;20029;-81
2022/11/08 00:38:33;;;;;;;6.20;2.92;;;;;;;9.95;85.73;98586.50;4998007;28;20682;-82
2022/11/08 00:40:58;;;;;;;7.70;3.17;;;;;;;9.98;85.19;98569.97;4999264;28;20037;-83
2022/11/08 00:43:24;;;;;;;9.60;2.70;;;;;;;9.91;85.56;98585.41;4980469;28;20037;-82
2022/11/08 00:45:49;;;;;;;8.45;3.92;;;;;;;9.92;86.08;98587.00;5019662;28;20036;-83
2022/11/08 00:48:14;;;;;;;7.60;2.75;;;;;;;10.02;85.03;98584.44;4997818;28;20037;-83
2022/11/08 00:50:40;;;;;;;9.88;3.08;;;;;;;9.99;85.31;98584.13;5015127;28;20042;-83
2022/11/08 00:53:05;;;;;;;9.23;2.72;;;;;;;9.78;85.07;98549.25;4999934;28;20037;-83
2022/11/08 00:55:31;;;;;;;5.05;2.60;;;;;;;9.95;85.56;98575.03;5000341;28;20110;-83
2022/11/08 00:57:56;;;;;;;10.70;3.35;;;;;;;9.81;85.55;98558.59;5019343;28;20037;-83
2022/11/08 01:00:22;;;;;;;12.43;3.67;;;;;;;9.96;85.57;98576.66;5016126;28;20489;-83
2022/11/08 01:02:47;;;;;;;8.55;2.97;;;;;;;9.92;86.17;98578.19;5001106;28;20045;-83
2022/11/08 01:05:13;;;;;;;11.65;2.83;;;;;;;10.00;85.48;98583.91;4981702;28;20060;-83
2022/11/08 01:07:38;;;;;;;8.50;3.10;;;;;;;10.12;84.92;98589.91;5013462;28;20029;-84
2022/11/08 01:10:05;;;;;;;7.47;2.90;;;;;;;9.94;85.95;98595.53;5020258;28;20045;-84
2022/11/08 01:12:30;;;;;;;6.90;3.25;;;;;;;9.98;85.05;98579.88;5020464;28;20079;-83
2022/11/08 01:14:55;;;;;;;5.38;3.15;;;;;;;9.86;85.56;98561.34;4988599;28;20025;-84
2022/11/08 01:17:21;;;;;;;19.30;3.42;;;;;;;10.06;85.29;98600.75;5002761;28;20044;-83
2022/11/08 01:19:46;;;;;;;9.07;3.53;;;;;;;9.95;85.21;98577.69;5021939;28;20037;-83
2022/11/08 01:22:11;;;;;;;6.13;2.22;;;;;;;10.11;85.45;98604.28;4986673;28;20029;-82
2022/11/08 01:24:37;;;;;;;8.70;3.17;;;;;;;10.07;86.30;98594.38;5009099;28;20460;-83
2022/11/08 01:27:02;;;;;;;5.82;2.80;;;;;;;10.09;85.09;98581.59;5003036;28;20064;-83
2022/11/08 01:29:28;;;;;;;9.85;2.97;;;;;;;10.15;84.71;98560.06;5007697;28;20042;-83
2022/11/08 01:31:53;;;;;;;8.75;3.78;;;;;;;10.22;84.38;98562.53;5002902;28;20400;-83
2022/11/08 01:34:18;;;;;;;6.60;3.00;;;;;;;10.12;85.27;98567.75;5020516;28;20033;-83
2022/11/08 01:36:44;;;;;;;6.80;3.53;;;;;;;10.23;85.15;98580.94;4989731;28;20103;-83
2022/11/08 01:39:10;;;;;;;13.65;3.30;;;;;;;10.27;84.34;98570.56;5023460;28;20420;-83
2022/11/08 01:41:35;;;;;;;8.40;3.63;;;;;;;10.19;85.14;98571.84;5004760;28;21221;-84
2022/11/08 01:44:00;;;;;;;8.43;3.15;;;;;;;10.23;84.31;98572.94;5007071;28;20072;-83
2022/11/08 01:46:36;;;;;;;6.28;3.38;;;;;;;10.10;85.22;98557.31;5006826;28;20474;-83
2022/11/08 01:49:08;;;;;;;;;;;;;;;9.99;85.91;98558.28;5018124;28;20049;-83
2022/11/08 01:51:41;;;;;;;7.40;3.28;;;;;;;10.09;85.27;98561.03;5019562;28;19923;-83
2022/11/08 01:54:12;;;;;;;9.30;2.95;;;;;;;9.97;85.41;98555.06;5007564;28;20041;-83
2022/11/08 01:56:39;;;;;;;7.70;2.92;;;;;;;9.97;84.79;98535.59;5003002;28;20493;-83
2022/11/08 01:59:08;;;;;;;6.53;3.30;;;;;;;10.01;85.22;98564.16;5017641;28;20036;-83
2022/11/08 02:01:34;;;;;;;10.75;3.17;;;;;;;9.95;85.32;98543.03;5000414;28;20033;-83
2022/11/08 02:04:00;;;;;;;6.30;3.10;;;;;;;9.92;85.70;98544.34;4988552;28;20056;-83
2022/11/08 02:06:28;;;;;;;7.63;3.38;;;;;;;9.87;85.64;98528.31;5001679;28;20034;-83
2022/11/08 02:08:56;;;;;;;3.65;2.65;;;;;;;10.00;85.54;98543.09;5004973;28;20801;-83
2022/11/08 02:11:21;;;;;;;12.70;3.08;;;;;;;10.07;84.93;98557.81;4986041;28;20556;-83
2022/11/08 02:13:47;;;;;;;7.95;3.65;;;;;;;9.98;85.40;98543.31;5019540;28;20026;-83
2022/11/08 02:16:15;;;;;;;7.82;3.45;;;;;;;9.94;85.14;98528.09;5003800;28;20033;-83
2022/11/08 02:18:43;;;;;;;6.05;3.58;;;;;;;10.03;85.12;98545.22;5006510;28;20029;-83
2022/11/08 02:21:49;;;;;;;9.25;3.20;;;;;;;10.11;84.83;98532.28;5003095;28;20133;-83
2022/11/08 02:24:16;;;;;;;4.80;3.67;;;;;;;10.13;84.35;98527.53;5017678;28;20033;-84
2022/11/08 02:26:43;;;;;;;10.52;3.55;;;;;;;10.05;84.87;98529.78;5020306;28;20025;-83
2022/11/08 02:29:32;;;;;;;10.57;4.28;;;;;;;10.12;84.87;98527.75;5021149;28;20158;-83
2022/11/08 02:31:58;;;;;;;6.80;3.67;;;;;;;9.89;84.55;98512.88;5020878;28;20080;-83
2022/11/08 02:34:31;;;;;;;8.55;4.45;;;;;;;10.04;84.13;98507.69;4997678;28;20029;-83
2022/11/08 02:36:58;;;;;;;7.63;3.75;;;;;;;10.08;84.23;98521.28;5018969;28;20049;-83
2022/11/08 02:39:23;;;;;;;6.30;3.63;;;;;;;10.05;84.19;98517.25;5017132;28;20029;-83
2022/11/08 02:41:49;;;;;;;8.63;3.53;;;;;;;10.02;84.40;98517.78;5024036;28;20032;-83
2022/11/08 02:44:14;;;;;;;8.20;4.10;;;;;;;10.13;83.99;98530.19;5021818;28;20029;-84
2022/11/08 02:46:39;;;;;;;11.52;3.63;;;;;;;10.09;84.07;98522.91;5003177;28;20034;-84
2022/11/08 02:49:05;;;;;;;11.85;3.55;;;;;;;10.10;83.94;98536.00;5019289;28;20025;-83
2022/11/08 02:51:30;;;;;;;9.27;3.60;;;;;;;10.03;84.53;98526.56;4999783;28;20029;-84
2022/11/08 02:53:56;;;;;;;9.25;3.78;;;;;;;10.00;84.16;98522.56;5004906;28;20037;-82
2022/11/08 02:56:22;;;;;;;4.65;3.60;;;;;;;9.95;84.48;98511.03;5022802;28;20041;-83
2022/11/08 02:58:47;;;;;;;7.20;3.17;;;;;;;9.93;84.49;98505.97;4987035;28;20037;-83
2022/11/08 03:01:13;;;;;;;10.00;4.07;;;;;;;9.78;84.52;98514.59;5002100;28;20033;-84
2022/11/08 03:03:38;;;;;;;11.60;5.35;;;;;;;9.84;84.28;98515.47;4987811;28;20048;-83
2022/11/08 03:06:04;;;;;;;7.60;3.88;;;;;;;9.96;84.23;98524.09;5007084;28;20033;-84
2022/11/08 03:08:29;;;;;;;5.20;3.25;;;;;;;10.02;83.70;98525.78;4997531;28;20041;-83
2022/11/08 03:10:54;;;;;;;6.88;4.28;;;;;;;9.86;84.44;98508.03;4983782;28;20120;-83
2022/11/08 03:13:20;;;;;;;6.88;3.97;;;;;;;9.70;84.39;98507.06;4995362;28;20382;-83
2022/11/08 03:15:45;;;;;;;9.40;4.35;;;;;;;9.90;84.06;98514.47;5016939;28;20033;-83
2022/11/08 03:18:10;;;;;;;7.00;3.58;;;;;;;9.81;84.68;98510.63;5005297;28;20037;-83
2022/11/08 03:20:36;;;;;;;7.13;3.33;;;;;;;9.94;84.06;98514.78;4990307;28;20485;-83
2022/11/08 03:23:04;;;;;;;5.75;3.05;;;;;;;9.85;83.83;98498.41;5019330;28;20033;-83
2022/11/08 03:25:29;;;;;;;5.60;3.60;;;;;;;9.79;84.20;98499.41;4998729;28;20055;-83
2022/11/08 03:27:59;;;;;;;6.15;3.25;;;;;;;9.72;85.04;98520.13;4995304;28;20091;-83
2022/11/08 03:30:25;;;;;;;4.30;3.88;;;;;;;9.72;84.75;98520.13;5014172;28;20033;-83
2022/11/08 03:32:50;;;;;;;8.20;3.65;;;;;;;9.71;84.57;98513.22;5001903;28;20056;-83
2022/11/08 03:35:18;;;;;;;4.95;3.05;;;;;;;9.56;85.22;98497.88;5018687;28;20037;-82
2022/11/08 03:37:54;;;;;;;8.85;3.65;;;;;;;9.65;85.64;98511.56;5014369;28;20068;-83
2022/11/08 03:40:20;;;;;;;;;;;;;;;9.74;85.31;98504.72;4985645;28;20034;-84
2022/11/08 03:42:46;;;;;;;5.27;3.13;;;;;;;9.57;85.23;98496.00;5023880;28;19977;-84
2022/11/08 03:45:12;;;;;;;8.65;3.63;;;;;;;9.77;85.41;98522.84;5020126;28;20021;-83
2022/11/08 03:47:38;;;;;;;8.35;3.58;;;;;;;9.78;85.33;98506.59;5016942;28;20034;-83
2022/11/08 03:50:06;;;;;;;9.52;3.40;;;;;;;9.67;84.75;98504.09;5014905;28;20128;-83
2022/11/08 03:52:58;;;;;;;5.70;3.08;;;;;;;9.65;85.04;98492.91;5004313;28;20159;-83
2022/11/08 03:55:26;;;;;;;6.65;3.90;;;;;;;9.80;84.83;98514.38;5013409;28;20041;-83
2022/11/08 03:57:52;;;;;;;8.75;3.38;;;;;;;9.63;85.23;98500.34;5006881;28;20021;-84
2022/11/08 04:00:20;;;;;;;9.65;3.28;;;;;;;9.67;85.69;98509.44;5004690;28;20113;-83
2022/11/08 04:02:46;;;;;;;4.40;3.30;;;;;;;9.58;85.90;98505.59;5021808;28;20029;-83
2022/11/08 04:05:13;;;;;;;11.95;3.20;;;;;;;9.59;85.69;98497.34;5004327;28;20373;-84
2022/11/08 04:07:38;;;;;;;5.60;3.38;;;;;;;9.63;86.45;98519.78;5001972;28;20494;-83
2022/11/08 04:10:06;;;;;;;7.95;3.92;;;;;;;9.68;85.51;98511.03;5008842;28;20029;-84
2022/11/08 04:15:20;;;;;;;11.88;3.20;;;;;;;9.65;86.08;98512.34;5004048;28;20144;-82
2022/11/08 04:23:29;;;;;;;5.43;3.25;;;;;;;9.81;85.16;98499.97;5026855;28;20094;-84
2022/11/08 04:25:57;;;;;;;11.55;3.60;;;;;;;9.69;85.80;98510.81;5028009;28;20067;-83
2022/11/08 04:28:27;;;;;;;5.95;3.38;;;;;;;9.74;85.53;98499.41;5007990;28;20022;-83
2022/11/08 04:30:55;;;;;;;9.02;3.17;;;;;;;9.68;85.58;98497.72;5024215;28;20033;-84
2022/11/08 04:33:21;;;;;;;5.03;2.95;;;;;;;9.57;86.01;98494.13;5023717;28;20035;-83
2022/11/08 04:35:47;;;;;;;9.57;3.65;;;;;;;9.55;86.23;98477.59;5025229;28;20037;-84
2022/11/08 04:38:12;;;;;;;6.22;3.00;;;;;;;9.67;85.61;98488.94;5004733;28;20445;-83
2022/11/08 04:40:38;;;;;;;8.15;3.83;;;;;;;9.51;86.26;98484.50;5024154;28;20125;-84
2022/11/08 04:43:03;;;;;;;6.88;3.17;;;;;;;9.56;85.83;98468.56;5021508;28;20133;-83
2022/11/08 04:45:28;;;;;;;6.75;3.40;;;;;;;9.57;85.64;98475.50;4974215;28;20119;-84
2022/11/08 04:47:54;;;;;;;5.75;3.33;;;;;;;9.57;86.05;98474.69;4989541;28;20068;-84
2022/11/08 04:50:19;;;;;;;8.82;3.45;;;;;;;9.50;85.88;98469.53;4987767;28;20035;-83
2022/11/08 04:52:53;;;;;;;11.65;3.35;;;;;;;9.53;84.54;98455.72;5023105;28;20033;-84
2022/11/08 04:55:20;;;;;;;11.35;3.55;;;;;;;9.40;86.19;98471.28;5022873;28;20417;-84
2022/11/08 04:57:46;;;;;;;10.10;4.60;;;;;;;9.26;85.93;98457.56;5018149;28;20147;-83
2022/11/08 05:00:12;;;;;;;7.90;3.42;;;;;;;9.62;85.43;98480.88;5004381;28;20033;-84
2022/11/08 05:02:38;;;;;;;5.43;2.97;;;;;;;9.56;84.97;98467.75;5001607;28;20029;-82
2022/11/08 05:05:04;;;;;;;8.57;3.28;;;;;;;9.54;84.64;98473.34;5009391;28;20029;-84
2022/11/08 05:07:30;;;;;;;6.15;3.85;;;;;;;9.44;84.59;98472.41;5024083;28;21365;-83
2022/11/08 05:09:56;;;;;;;5.75;3.40;;;;;;;9.38;84.56;98457.44;5005598;28;20029;-83
2022/11/08 05:12:21;;;;;;;8.35;3.25;;;;;;;9.57;84.97;98464.00;5019376;28;20634;-83
2022/11/08 05:14:46;;;;;;;10.65;3.53;;;;;;;9.37;84.80;98461.16;5017624;28;20134;-84
2022/11/08 05:17:12;;;;;;;9.55;3.63;;;;;;;9.39;84.63;98461.72;5006167;28;20064;-83
2022/11/08 05:25:05;;;;;;;7.35;4.43;;;;;;;9.49;84.25;98461.81;5024345;28;20041;-83
2022/11/08 05:27:31;;;;;;;9.18;3.80;;;;;;;9.44;84.97;98451.91;5017244;28;20030;-83
2022/11/08 05:29:56;;;;;;;4.40;3.72;;;;;;;9.35;84.13;98453.41;5024091;28;20029;-83
2022/11/08 05:32:22;;;;;;;8.60;4.03;;;;;;;9.35;84.60;98455.28;4987064;28;20155;-84
2022/11/08 05:34:47;;;;;;;7.65;4.15;;;;;;;9.29;84.95;98450.94;5005908;28;20382;-83
2022/11/08 05:37:13;;;;;;;6.72;3.88;;;;;;;9.41;84.40;98464.94;4984850;28;20041;-84
2022/11/08 05:39:38;;;;;;;6.68;3.80;;;;;;;9.18;85.90;98458.00;5000723;28;20054;-83
2022/11/08 05:42:04;;;;;;;8.30;3.80;;;;;;;9.34;84.56;98448.34;5004590;28;20033;-83
2022/11/08 05:44:29;;;;;;;8.75;3.20;;;;;;;9.39;85.02;98461.72;5025144;28;20051;-81
2022/11/08 05:46:55;;;;;;;4.00;3.30;;;;;;;9.27;84.72;98461.84;5010145;28;20029;-82
2022/11/08 05:49:20;;;;;;;12.93;3.85;;;;;;;9.39;84.84;98464.38;4990696;28;20036;-82
2022/11/08 05:51:46;;;;;;;7.32;3.47;;;;;;;9.33;84.46;98450.19;5030664;28;20087;-83
2022/11/08 05:54:12;;;;;;;6.70;3.50;;;;;;;9.25;84.63;98447.97;5014038;28;20083;-82
2022/11/08 05:56:37;;;;;;;7.35;3.65;;;;;;;9.39;84.19;98443.84;5003358;28;20028;-82
2022/11/08 05:59:03;;;;;;;3.67;2.85;;;;;;;9.34;83.77;98451.81;5012986;28;20091;-83
2022/11/08 06:01:28;;;;;;;7.97;3.65;;;;;;;9.27;84.71;98451.19;5012028;28;20030;-83
2022/11/08 06:03:54;;;;;;;4.57;3.20;;;;;;;9.21;84.22;98435.41;5017670;28;20033;-82
2022/11/08 06:06:20;;;;;;;7.80;3.70;;;;;;;9.30;84.82;98449.91;5027989;28;20068;-83
2022/11/08 06:08:46;;;;;;;4.22;3.22;;;;;;;9.24;84.83;98448.22;5012938;28;20041;-82
2022/11/08 06:11:14;;;;;;;10.68;3.67;;;;;;;9.34;83.90;98440.34;5015335;28;20033;-82
2022/11/08 06:13:40;;;;;;;5.60;2.95;;;;;;;9.35;83.86;98439.31;5032822;28;20037;-83
2022/11/08 06:16:09;;;;;;;7.93;3.72;;;;;;;9.32;84.39;98448.59;5030758;28;20408;-82
2022/11/08 06:18:35;;;;;;;5.05;2.92;;;;;;;9.31;84.05;98454.16;5009282;28;20052;-82
2022/11/08 06:21:03;;;;;;;7.00;3.22;;;;;;;9.22;83.96;98439.69;5015030;28;20087;-82
2022/11/08 06:23:29;;;;;;;7.57;3.42;;;;;;;9.14;84.31;98434.78;5027122;28;20116;-83
2022/11/08 06:25:54;;;;;;;4.15;3.17;;;;;;;9.27;84.25;98445.06;5010018;28;20091;-82
2022/11/08 06:28:20;;;;;;;7.95;3.45;;;;;;;9.23;83.67;98427.97;5026439;28;20066;-83
2022/11/08 06:30:46;;;;;;;5.75;3.00;;;;;;;9.15;84.67;98437.22;5033929;28;20033;-83
2022/11/08 06:33:11;;;;;;;6.72;3.67;;;;;;;9.03;84.25;98426.69;5028624;28;20029;-82
2022/11/08 06:35:37;;;;;;;5.43;3.33;;;;;;;9.00;84.52;98408.53;5008068;28;20029;-82
2022/11/08 06:38:02;;;;;;;5.63;3.80;;;;;;;9.03;84.84;98426.69;5009178;28;20032;-82
2022/11/08 06:40:28;;;;;;;6.03;3.28;;;;;;;9.16;84.18;98433.50;5022738;28;20136;-82
2022/11/08 06:42:53;;;;;;;8.02;3.10;;;;;;;9.19;84.97;98434.84;5007532;28;20048;-82
2022/11/08 06:45:19;;;;;;;8.18;3.00;;;;;;;9.19;84.68;98429.53;5010487;28;20048;-82
2022/11/08 06:47:45;;;;;;;3.90;3.20;;;;;;;9.17;84.03;98418.31;5004127;28;20033;-81
2022/11/08 06:50:11;;;;;;;12.35;3.55;;;;;;;9.25;84.19;98442.66;4972459;28;20037;-82
2022/11/08 06:52:36;;;;;;;8.82;2.95;;;;;;;9.23;83.98;98431.44;5008134;28;20076;-82
2022/11/08 06:55:02;;;;;;;6.47;3.83;;;;;;;9.20;83.91;98429.28;5027368;28;20035;-82
2022/11/08 06:57:27;;;;;;;7.07;3.67;;;;;;;9.36;83.75;98444.38;5029500;28;20025;-82
2022/11/08 06:59:53;;;;;;;7.82;3.40;;;;;;;9.28;84.46;98446.69;5032426;28;20111;-82
2022/11/08 07:02:18;;;;;;;9.93;3.38;;;;;;;9.21;83.91;98435.41;5010886;28;20037;-82
2022/11/08 07:04:44;;;;;;;6.13;2.90;;;;;;;9.40;83.84;98442.81;5005475;28;20030;-83
2022/11/08 07:07:09;;;;;;;8.07;3.33;;;;;;;9.33;83.75;98439.53;5015586;28;20616;-82
2022/11/08 07:09:34;;;;;;;7.13;3.35;;;;;;;9.19;83.71;98433.00;5003163;28;20139;-82
2022/11/08 07:12:00;;;;;;;7.18;3.63;;;;;;;9.23;84.44;98446.63;4995262;28;20092;-82
2022/11/08 07:14:25;;;;;;;6.63;3.30;;;;;;;9.30;83.96;98436.56;5029207;28;20392;-83
2022/11/08 07:16:50;;;;;;;9.88;3.75;;;;;;;9.23;84.48;98439.44;5008935;28;20041;-83
2022/11/08 07:19:16;;;;;;;8.48;3.70;;;;;;;9.16;84.70;98432.69;4999027;28;20032;-83
2022/11/08 07:21:41;;;;;;;9.27;3.47;;;;;;;9.18;84.41;98419.91;5028482;28;20030;-83
2022/11/08 07:24:07;;;;;;;7.25;3.30;;;;;;;9.21;84.99;98440.72;5024801;28;20112;-83
2022/11/08 07:26:32;;;;;;;8.35;3.30;;;;;;;9.27;83.75;98418.41;5012972;28;20030;-82
2022/11/08 07:28:58;;;;;;;6.13;3.60;;;;;;;9.28;83.48;98425.38;5029179;28;20044;-82
2022/11/08 07:31:23;;;;;;;5.20;2.88;;;;;;;9.17;84.64;98429.78;4988727;28;20037;-82
2022/11/08 07:33:49;;;;;;;6.20;3.38;;;;;;;9.39;83.76;98437.75;5027957;28;20497;-82
2022/11/08 07:36:15;;;;;;;5.95;3.80;;;;;;;9.33;83.95;98450.19;5011645;28;20029;-82
2022/11/08 07:38:40;;;;;;;10.05;3.60;;;;;;;9.35;84.25;98426.78;5020401;28;20041;-83
2022/11/08 07:41:05;;;;;;;6.65;3.42;;;;;;;9.31;84.09;98424.84;5009943;28;20643;-83
2022/11/08 07:43:31;;;;;;;7.40;3.70;;;;;;;9.25;84.64;98418.69;5000913;28;20034;-82
2022/11/08 07:45:59;;;;;;;9.35;4.60;;;;;;;8.76;88.25;98432.97;4990703;28;20432;-83
2022/11/08 07:48:26;;;;;;;8.13;3.67;;;;;;;8.93;86.67;98415.91;5024632;28;20508;-82
2022/11/08 07:50:51;;;;;;;7.20;3.78;;;;;;;8.94;86.79;98417.53;5029621;28;20128;-83
2022/11/08 07:53:17;;;;;;;10.30;3.83;;;;;;;9.13;86.21;98436.63;5027376;28;21075;-82
2022/11/08 07:55:46;;;;;;;7.28;3.67;;;;;;;8.86;87.30;98433.94;5007624;28;20026;-83
2022/11/08 07:58:13;;;;;;;16.70;4.10;;;;;;;8.77;88.12;98408.81;5003639;28;20068;-82
2022/11/08 08:00:40;;;;;;;8.02;3.50;;;;;;;9.12;85.83;98426.25;5019000;28;20041;-82
2022/11/08 08:03:07;;;;;;;4.05;3.53;;;;;;;9.04;87.56;98430.16;5025918;28;20034;-82
2022/11/08 08:05:35;;;;;;;9.48;2.95;;;;;;;9.08;86.13;98415.31;5012257;28;20091;-83
2022/11/08 08:08:03;;;;;;;8.65;2.75;;;;;;;9.32;85.29;98415.81;5008053;28;20033;-82
2022/11/08 08:10:29;;;;;;;4.32;2.83;;;;;;;9.23;85.44;98409.34;5027491;28;20046;-83
2022/11/08 08:12:55;;;;;;;7.97;3.90;;;;;;;9.28;85.28;98420.03;5009651;28;20026;-82
2022/11/08 08:15:21;;;;;;;7.57;3.15;;;;;;;9.27;84.98;98411.25;5018179;28;20044;-83
2022/11/08 08:17:46;;;;;;;4.20;3.50;;;;;;;9.32;85.09;98426.47;5015500;28;20021;-82
2022/11/08 08:20:12;;;;;;;4.20;3.80;;;;;;;8.99;87.07;98427.44;5026519;28;20045;-82
2022/11/08 08:22:43;;;;;;;7.43;3.00;;;;;;;9.04;86.60;98419.53;4988572;28;20032;-82
2022/11/08 08:25:09;;;;;;;7.10;3.95;;;;;;;9.16;86.48;98432.69;5029563;28;20056;-82
2022/11/08 08:27:34;;;;;;;7.40;3.90;;;;;;;8.94;88.16;98412.22;5031950;28;20069;-83
2022/11/08 08:29:59;;;;;;;8.93;4.28;;;;;;;9.10;86.55;98407.06;5031459;28;20029;-83
2022/11/08 08:32:25;;;;;;;10.05;4.00;;;;;;;9.13;86.71;98406.56;4995701;28;20583;-83
2022/11/08 08:34:50;;;;;;;10.10;3.53;;;;;;;9.23;86.42;98402.16;5025386;28;20033;-82
2022/11/08 08:37:16;;;;;;;6.63;4.05;;;;;;;9.20;86.63;98393.84;4990640;28;20029;-82
2022/11/08 08:39:41;;;;;;;5.55;3.97;;;;;;;9.34;85.77;98400.41;5006355;28;20036;-82
2022/11/08 08:42:07;;;;;;;6.75;3.97;;;;;;;9.21;87.47;98393.63;5027947;28;20511;-82
2022/11/08 08:44:32;;;;;;;7.03;3.75;;;;;;;9.02;87.91;98384.38;5025255;28;20033;-84
2022/11/08 08:46:57;;;;;;;5.68;3.13;;;;;;;9.12;88.13;98399.63;5028061;28;20033;-82
2022/11/08 08:49:23;;;;;;;7.13;4.00;;;;;;;9.24;86.73;98392.31;5028815;28;20033;-82
2022/11/08 08:51:48;;;;;;;6.05;3.80;;;;;;;9.24;88.03;98398.41;5012609;28;20401;-83
2022/11/08 08:54:14;;;;;;;5.38;3.13;;;;;;;9.22;86.56;98378.44;5012749;28;20061;-83
2022/11/08 08:56:40;;;;;;;11.80;3.65;;;;;;;9.12;88.71;98384.47;5009562;28;20467;-82
2022/11/08 08:59:05;;;;;;;4.60;3.15;;;;;;;9.22;86.36;98378.44;5029449;28;20029;-82
2022/11/08 09:01:31;;;;;;;11.82;5.00;;;;;;;9.19;88.51;98400.25;5028093;28;20378;-82
2022/11/08 09:03:57;;;;;;;8.30;4.00;;;;;;;9.19;87.73;98381.59;5028595;28;20465;-82
2022/11/08 09:06:22;;;;;;;5.90;4.38;;;;;;;9.24;87.80;98387.00;4996078;28;20045;-83
2022/11/08 09:08:48;;;;;;;8.80;2.90;;;;;;;9.48;85.96;98377.63;5030205;28;20382;-82
2022/11/08 09:11:13;;;;;;;4.70;3.33;;;;;;;9.41;85.98;98377.03;5028991;28;20022;-82
2022/11/08 09:13:39;;;;;;;11.35;3.80;;;;;;;9.21;87.98;98387.47;5012090;28;20379;-83
2022/11/08 09:16:06;;;;;;;7.97;3.25;;;;;;;9.25;86.99;98368.09;5026250;28;20032;-82
2022/11/08 09:18:32;;;;;;;10.10;3.72;;;;;;;9.29;87.41;98381.69;5003329;28;20021;-83
2022/11/08 09:20:59;;;;;;;7.28;3.22;;;;;;;9.53;86.29;98388.31;5012987;28;20033;-82
2022/11/08 09:23:24;;;;;;;7.45;3.08;;;;;;;9.44;86.37;98372.00;5012958;28;20029;-83
2022/11/08 09:25:56;;;;;;;5.85;3.20;;;;;;;9.49;86.53;98385.38;5025856;28;20382;-82
2022/11/08 09:28:21;;;;;;;8.38;3.83;;;;;;;9.47;86.91;98376.03;5001017;28;20087;-82
2022/11/08 09:30:47;;;;;;;4.63;2.95;;;;;;;9.64;86.76;98392.69;5028007;28;20045;-82
2022/11/08 09:33:12;;;;;;;4.70;3.10;;;;;;;9.70;86.35;98389.00;5031279;28;20061;-82
2022/11/08 09:35:38;;;;;;;4.95;3.33;;;;;;;9.50;86.61;98356.88;5018172;28;20029;-82
2022/11/08 09:38:03;;;;;;;5.90;3.00;;;;;;;9.72;85.42;98374.38;5008658;28;20033;-82
2022/11/08 09:40:30;;;;;;;4.78;2.58;;;;;;;9.76;86.16;98374.69;5032509;28;20136;-82
2022/11/08 09:43:00;;;;;;;6.20;3.00;;;;;;;9.69;85.97;98371.41;5032989;28;20494;-82
2022/11/08 09:45:33;;;;;;;8.55;3.05;;;;;;;9.73;85.55;98370.66;5012810;28;20029;-82
2022/11/08 09:48:03;;;;;;;6.90;3.53;;;;;;;9.86;85.87;98385.41;5032507;28;20033;-83
2022/11/08 09:50:41;;;;;;;4.63;2.80;;;;;;;9.85;85.52;98381.13;5023847;28;20060;-82
2022/11/08 09:53:33;;;;;;;6.70;2.90;;;;;;;10.00;85.18;98381.28;5031632;28;20025;-82
2022/11/08 09:56:08;;;;;;;7.05;3.25;;;;;;;10.03;85.36;98388.75;5031217;28;20080;-82
2022/11/08 09:58:39;;;;;;;3.38;2.40;;;;;;;10.09;85.06;98390.38;5004858;28;20033;-82
2022/11/08 10:01:10;;;;;;;4.93;2.65;;;;;;;10.01;84.84;98379.38;5031066;28;20037;-82
2022/11/08 10:03:36;;;;;;;8.15;3.15;;;;;;;10.05;84.45;98378.63;5033626;28;20037;-82
2022/11/08 10:06:17;;;;;;;4.90;2.75;;;;;;;10.14;84.84;98387.78;5016110;28;20026;-82
2022/11/08 10:09:11;;;;;;;5.22;2.55;;;;;;;10.27;84.76;98390.00;5031724;28;20029;-82
2022/11/08 10:11:53;;;;;;;7.00;2.78;;;;;;;10.10;84.24;98381.31;5032517;28;20029;-82
2022/11/08 10:14:27;;;;;;;6.90;2.80;;;;;;;10.23;84.42;98388.09;5032648;28;20035;-82
2022/11/08 10:17:12;;;;;;;3.88;2.35;;;;;;;10.24;84.52;98384.38;5014629;28;20497;-82
2022/11/08 10:19:52;;;;;;;2.50;2.30;;;;;;;10.33;83.82;98380.19;5032427;28;20022;-82
2022/11/08 10:22:46;;;;;;;2.88;2.47;;;;;;;10.45;83.52;98372.75;5015812;28;20037;-82
2022/11/08 10:25:31;;;;;;;5.22;2.75;;;;;;;10.30;83.61;98365.50;5022575;28;20030;-82
2022/11/08 10:28:00;;;;;;;3.45;2.47;;;;;;;10.41;83.53;98364.50;5025933;28;20402;-82
2022/11/08 10:30:34;;;;;;;4.50;3.35;;;;;;;10.27;83.81;98339.31;5014215;28;20044;-82
2022/11/08 10:32:59;;;;;;;9.32;2.47;;;;;;;10.45;83.81;98346.09;5009226;28;20064;-82
2022/11/08 10:35:40;;;;;;;4.82;2.60;;;;;;;10.42;84.20;98351.94;5015289;28;20132;-82
2022/11/08 10:38:21;;;;;;;3.90;2.85;;;;;;;10.42;83.43;98336.72;5013815;28;20021;-82
2022/11/08 10:40:56;;;;;;;5.60;2.63;;;;;;;10.49;83.05;98337.31;5032563;28;20087;-82
2022/11/08 10:43:56;;;;;;;4.50;2.70;;;;;;;10.48;83.04;98321.56;5023898;28;20366;-82
2022/11/08 10:46:40;;;;;;;3.50;2.60;;;;;;;10.51;82.51;98319.16;5019119;28;20048;-82
2022/11/08 10:49:14;;;;;;;4.15;2.65;;;;;;;10.67;82.31;98322.69;5030953;28;20386;-82
2022/11/08 10:51:39;;;;;;;8.85;2.70;;;;;;;10.80;82.73;98319.53;5017731;28;20044;-82
2022/11/08 10:54:05;;;;;;;4.07;2.58;;;;;;;10.68;82.59;98286.16;5015112;28;20041;-82
2022/11/08 10:56:30;;;;;;;2.78;2.45;;;;;;;10.82;81.60;98292.56;5015523;28;20034;-82
2022/11/08 10:58:56;;;;;;;2.60;2.30;;;;;;;10.99;81.46;98303.81;5029954;28;20036;-82
2022/11/08 11:01:24;;;;;;;6.32;2.90;;;;;;;10.90;81.40;98271.50;4997083;28;20033;-82
2022/11/08 11:03:51;;;;;;;5.15;2.55;;;;;;;11.16;81.33;98309.75;5010491;28;20076;-82
2022/11/08 11:06:28;;;;;;;6.03;2.42;;;;;;;11.17;79.90;98308.66;5029007;28;20037;-82
2022/11/08 11:08:56;;;;;;;4.60;2.38;;;;;;;11.27;81.25;98298.00;5024625;28;20025;-82
2022/11/08 11:11:30;;;;;;;5.22;2.95;;;;;;;11.27;80.55;98298.00;5013831;28;20482;-82
2022/11/08 11:14:06;;;;;;;4.18;2.35;;;;;;;11.29;80.22;98287.88;5024525;28;20025;-82
2022/11/08 11:16:31;;;;;;;4.97;2.40;;;;;;;11.31;80.91;98281.16;5024446;28;20028;-82
2022/11/08 11:19:00;;;;;;;3.53;2.17;;;;;;;11.43;80.69;98298.81;5012184;28;20389;-82
2022/11/08 11:21:32;;;;;;;6.07;2.08;;;;;;;11.46;80.72;98290.25;5029768;28;20043;-82
2022/11/08 11:24:16;;;;;;;4.80;2.60;;;;;;;11.44;80.64;98290.53;5027671;28;20036;-82
2022/11/08 11:26:46;;;;;;;4.72;2.70;;;;;;;11.50;80.61;98294.00;5028481;28;20108;-82
2022/11/08 11:29:18;;;;;;;4.95;2.30;;;;;;;11.56;80.12;98263.53;5027021;28;20373;-82
2022/11/08 11:31:46;;;;;;;5.63;2.75;;;;;;;11.79;80.00;98297.75;5018110;28;20430;-82
2022/11/08 11:34:18;;;;;;;4.00;2.25;;;;;;;11.87;79.23;98295.34;5026033;28;20484;-82
2022/11/08 11:36:50;;;;;;;5.15;2.85;;;;;;;11.77;77.89;98281.19;5026998;28;20079;-82
2022/11/08 11:39:51;;;;;;;4.95;2.33;;;;;;;11.93;78.91;98288.91;5013016;28;20168;-82
2022/11/08 11:42:23;;;;;;;3.65;2.13;;;;;;;11.95;78.33;98270.72;5001443;28;20490;-82
2022/11/08 11:45:22;;;;;;;4.25;2.55;;;;;;;12.14;78.17;98292.34;5026443;28;20079;-82
2022/11/08 11:47:52;;;;;;;2.97;2.20;;;;;;;12.13;78.80;98295.28;5027160;28;20489;-82
2022/11/08 11:50:53;;;;;;;4.25;2.20;;;;;;;11.91;76.13;98280.34;5027092;28;20037;-81
2022/11/08 11:53:35;;;;;;;2.58;1.80;;;;;;;12.06;77.88;98282.19;4962199;28;20035;-82
2022/11/08 11:56:19;;;;;;;2.47;1.85;;;;;;;11.97;76.25;98286.47;5003000;28;20461;-82
2022/11/08 11:59:18;;;;;;;3.75;1.98;;;;;;;11.96;78.18;98280.34;5027426;28;20029;-82
2022/11/08 12:02:09;;;;;;;3.75;1.85;;;;;;;12.09;77.90;98275.50;5023327;28;20480;-82
2022/11/08 12:05:13;;;;;;;6.50;2.55;;;;;;;11.85;77.99;98260.06;5029441;28;20033;-82
2022/11/08 12:07:54;;;;;;;5.40;2.25;;;;;;;11.94;78.58;98263.78;4989876;28;20099;-82
2022/11/08 12:10:25;;;;;;;3.25;1.98;;;;;;;11.92;76.60;98265.94;5030489;28;20095;-82